Time;durP1;ratioP1;P1;durP2;ratioP2;P2;SDS_P1;SDS_P2;PMS_P1;PMS_P2;Temp;Humidity;BMP_temperature;BMP_pressure;BME280_temperature;BME280_humidity;BME280_pressure;Samples;Min_cycle;Max_cycle;Signal;HPM_P1;HPM_P2
2022/07/22 00:00:31;;;;;;;6.32;2.20;;;16.60;99.90;;;;;;5093314;28;20461;-75
2022/07/22 00:02:57;;;;;;;11.18;2.83;;;16.60;99.90;;;;;;5091869;28;20371;-76
2022/07/22 00:05:22;;;;;;;10.65;3.13;;;16.60;99.90;;;;;;5093515;28;20390;-76
2022/07/22 00:07:48;;;;;;;4.72;2.45;;;16.50;99.90;;;;;;5092923;28;20024;-76
2022/07/22 00:10:13;;;;;;;12.43;2.70;;;16.50;99.90;;;;;;5092566;28;20048;-76
2022/07/22 00:12:39;;;;;;;5.13;2.25;;;16.50;99.90;;;;;;5093070;28;20024;-76
2022/07/22 00:15:06;;;;;;;4.60;1.90;;;16.50;99.90;;;;;;5092848;28;20030;-75
2022/07/22 00:17:32;;;;;;;6.30;2.83;;;16.60;99.90;;;;;;5093077;28;20024;-76
2022/07/22 00:19:57;;;;;;;7.78;2.22;;;16.50;99.90;;;;;;5093513;28;20501;-75
2022/07/22 00:22:23;;;;;;;5.55;2.35;;;16.60;99.90;;;;;;5092467;28;20028;-76
2022/07/22 00:24:49;;;;;;;4.20;2.13;;;16.60;99.90;;;;;;5091759;28;20103;-75
2022/07/22 00:27:14;;;;;;;5.93;2.53;;;16.50;99.90;;;;;;5092498;28;20028;-76
2022/07/22 00:29:41;;;;;;;6.30;2.58;;;16.40;99.90;;;;;;5079842;28;20017;-75
2022/07/22 00:32:07;;;;;;;5.07;1.98;;;16.60;99.90;;;;;;5071005;28;20028;-75
2022/07/22 00:34:32;;;;;;;6.90;1.95;;;16.60;99.90;;;;;;5071900;28;20368;-76
2022/07/22 00:36:58;;;;;;;3.97;2.10;;;16.50;99.90;;;;;;5090128;28;20035;-77
2022/07/22 00:39:23;;;;;;;11.20;2.50;;;16.50;99.90;;;;;;5077688;28;20115;-76
2022/07/22 00:41:49;;;;;;;6.63;2.63;;;16.50;99.90;;;;;;5093701;28;20028;-76
2022/07/22 00:44:15;;;;;;;12.55;3.13;;;16.50;99.90;;;;;;5092901;28;20031;-75
2022/07/22 00:46:40;;;;;;;5.07;2.17;;;16.50;99.90;;;;;;5085408;28;20021;-74
2022/07/22 00:49:08;;;;;;;3.55;2.03;;;16.50;99.90;;;;;;5084609;28;20395;-75
2022/07/22 00:51:34;;;;;;;11.07;2.78;;;16.50;99.90;;;;;;5092540;28;20024;-76
2022/07/22 00:54:01;;;;;;;7.00;2.35;;;16.50;99.90;;;;;;5091571;28;20026;-76
2022/07/22 00:56:28;;;;;;;6.85;2.15;;;16.50;99.90;;;;;;5092322;28;20048;-76
2022/07/22 00:58:56;;;;;;;10.60;2.22;;;16.40;99.90;;;;;;5091408;28;20024;-77
2022/07/22 01:01:22;;;;;;;7.22;2.47;;;16.40;99.90;;;;;;5091643;28;20032;-76
2022/07/22 01:03:48;;;;;;;2.70;1.75;;;16.40;99.90;;;;;;5085114;28;20406;-76
2022/07/22 01:06:13;;;;;;;5.03;2.42;;;16.40;99.90;;;;;;5092379;28;20107;-76
2022/07/22 01:08:39;;;;;;;6.78;2.13;;;16.50;99.90;;;;;;5096664;28;20027;-75
2022/07/22 01:11:14;;;;;;;5.75;2.20;;;16.50;99.90;;;;;;5093924;28;20108;-75
2022/07/22 01:13:40;;;;;;;3.58;2.08;;;16.50;99.90;;;;;;5092319;28;20020;-75
2022/07/22 01:16:08;;;;;;;4.82;1.85;;;16.40;99.90;;;;;;5091721;28;20039;-76
2022/07/22 01:18:34;;;;;;;8.55;2.20;;;16.40;99.90;;;;;;5091672;28;20024;-75
2022/07/22 01:21:00;;;;;;;14.98;3.60;;;16.40;99.90;;;;;;5090668;28;20483;-77
2022/07/22 01:23:26;;;;;;;9.35;2.70;;;16.40;99.90;;;;;;5092002;28;20035;-77
2022/07/22 01:25:51;;;;;;;5.57;2.80;;;16.50;99.90;;;;;;5092735;28;20020;-76
2022/07/22 01:28:17;;;;;;;11.35;3.17;;;16.40;99.90;;;;;;5095270;28;20034;-76
2022/07/22 01:30:42;;;;;;;9.20;2.67;;;16.50;99.90;;;;;;5095968;28;20379;-76
2022/07/22 01:33:08;;;;;;;13.77;3.70;;;16.50;99.90;;;;;;5095474;28;20081;-76
2022/07/22 01:35:34;;;;;;;6.55;3.03;;;16.50;99.90;;;;;;5094844;28;20024;-76
2022/07/22 01:37:59;;;;;;;10.70;3.00;;;16.50;99.90;;;;;;5088312;28;20020;-76
2022/07/22 01:40:25;;;;;;;5.70;2.85;;;16.60;99.90;;;;;;5088964;28;20491;-76
2022/07/22 01:42:51;;;;;;;10.07;2.58;;;16.50;99.90;;;;;;5094805;28;20020;-76
2022/07/22 01:45:16;;;;;;;8.80;3.33;;;16.50;99.90;;;;;;5095680;28;20107;-75
2022/07/22 01:47:42;;;;;;;12.65;3.15;;;16.40;99.90;;;;;;5095459;28;20535;-75
2022/07/22 01:50:10;;;;;;;9.98;2.80;;;16.30;99.90;;;;;;5094639;28;20480;-77
2022/07/22 01:52:36;;;;;;;10.45;2.88;;;16.40;99.90;;;;;;5095266;28;20020;-76
2022/07/22 01:55:02;;;;;;;12.82;3.35;;;16.40;99.90;;;;;;5094992;28;20372;-76
2022/07/22 01:57:28;;;;;;;10.30;3.10;;;16.30;99.90;;;;;;5095139;28;20028;-76
2022/07/22 01:59:54;;;;;;;10.75;2.90;;;16.30;99.90;;;;;;5077120;28;20022;-75
2022/07/22 02:02:19;;;;;;;6.55;2.33;;;16.20;99.90;;;;;;5095285;28;20108;-76
2022/07/22 02:04:45;;;;;;;5.20;2.58;;;16.20;99.90;;;;;;5095171;28;20413;-75
2022/07/22 02:07:11;;;;;;;5.53;2.53;;;16.20;99.90;;;;;;5095064;28;20514;-75
2022/07/22 02:09:36;;;;;;;8.70;2.90;;;16.20;99.90;;;;;;5094922;28;20032;-76
2022/07/22 02:12:02;;;;;;;5.80;2.03;;;16.20;99.90;;;;;;5094679;28;20036;-75
2022/07/22 02:14:28;;;;;;;8.23;2.42;;;16.20;99.90;;;;;;5095392;28;20024;-75
2022/07/22 02:16:53;;;;;;;3.55;2.13;;;16.20;99.90;;;;;;5094350;28;20036;-76
2022/07/22 02:19:19;;;;;;;6.82;2.80;;;16.20;99.90;;;;;;5095181;28;20450;-76
2022/07/22 02:21:44;;;;;;;12.75;2.70;;;16.10;99.90;;;;;;5094925;28;20043;-76
2022/07/22 02:24:10;;;;;;;8.68;3.40;;;16.20;99.90;;;;;;5093965;28;20024;-76
2022/07/22 02:26:35;;;;;;;6.63;3.20;;;16.20;99.90;;;;;;5094996;28;20100;-75
2022/07/22 02:29:01;;;;;;;6.60;2.80;;;16.20;99.90;;;;;;5094366;28;20569;-75
2022/07/22 02:31:27;;;;;;;4.25;2.90;;;16.20;99.90;;;;;;5094509;28;20471;-75
2022/07/22 02:33:52;;;;;;;4.50;2.78;;;16.30;99.90;;;;;;5094426;28;20035;-75
2022/07/22 02:36:18;;;;;;;7.07;3.30;;;16.20;99.90;;;;;;5094039;28;20479;-75
2022/07/22 02:38:43;;;;;;;9.38;3.40;;;16.30;99.90;;;;;;5080633;28;20024;-75
2022/07/22 02:41:09;;;;;;;6.57;2.92;;;16.30;99.90;;;;;;5096861;28;20127;-75
2022/07/22 02:43:35;;;;;;;6.75;3.10;;;16.30;99.90;;;;;;5097227;28;20073;-76
2022/07/22 02:46:00;;;;;;;6.30;3.45;;;16.30;99.90;;;;;;5093906;28;20031;-75
2022/07/22 02:48:26;;;;;;;7.40;3.25;;;16.30;99.90;;;;;;5094615;28;20440;-76
2022/07/22 02:50:51;;;;;;;5.63;3.03;;;16.30;99.90;;;;;;5093528;28;20016;-76
2022/07/22 02:53:17;;;;;;;8.02;3.65;;;16.30;99.90;;;;;;5088940;28;20502;-74
2022/07/22 02:55:43;;;;;;;7.30;3.10;;;16.30;99.90;;;;;;5090687;28;20028;-74
2022/07/22 02:58:09;;;;;;;5.07;3.40;;;16.30;99.90;;;;;;5094056;28;20494;-75
2022/07/22 03:00:37;;;;;;;5.60;3.38;;;16.30;99.90;;;;;;5085069;28;20024;-74
2022/07/22 03:03:03;;;;;;;5.63;3.40;;;16.30;99.90;;;;;;5092145;28;20022;-75
2022/07/22 03:05:29;;;;;;;8.55;3.10;;;16.30;99.90;;;;;;5092447;28;20032;-75
2022/07/22 03:07:54;;;;;;;6.25;2.90;;;16.30;99.90;;;;;;5091540;28;20036;-74
2022/07/22 03:10:20;;;;;;;5.18;3.20;;;16.30;99.90;;;;;;5095938;28;20048;-75
2022/07/22 03:12:45;;;;;;;6.50;3.40;;;16.30;99.90;;;;;;5099785;28;20471;-75
2022/07/22 03:15:11;;;;;;;5.30;2.92;;;16.20;99.90;;;;;;5100993;28;20024;-75
2022/07/22 03:17:37;;;;;;;6.43;2.67;;;16.30;99.90;;;;;;5094068;28;20424;-75
2022/07/22 03:20:07;;;;;;;2.70;2.50;;;16.30;99.90;;;;;;5090071;28;20017;-74
2022/07/22 03:22:33;;;;;;;10.05;3.78;;;16.30;99.90;;;;;;5083775;28;20210;-75
2022/07/22 03:24:59;;;;;;;7.68;2.95;;;16.30;99.90;;;;;;5093517;28;20068;-75
2022/07/22 03:27:26;;;;;;;5.63;3.45;;;16.30;99.90;;;;;;5093270;28;20063;-76
2022/07/22 03:29:52;;;;;;;4.05;3.00;;;16.30;99.90;;;;;;5078888;28;20803;-76
2022/07/22 03:32:18;;;;;;;9.05;3.67;;;16.30;99.90;;;;;;5093481;28;20071;-75
2022/07/22 03:34:44;;;;;;;5.72;3.17;;;16.30;99.90;;;;;;5093337;28;20038;-76
2022/07/22 03:37:09;;;;;;;8.30;2.97;;;16.30;99.90;;;;;;5092067;28;20032;-75
2022/07/22 03:39:35;;;;;;;4.80;2.95;;;16.20;99.90;;;;;;5080276;28;20020;-76
2022/07/22 03:42:01;;;;;;;7.63;3.15;;;16.30;99.90;;;;;;5092570;28;20047;-75
2022/07/22 03:44:26;;;;;;;5.57;2.72;;;16.30;99.90;;;;;;5093356;28;20501;-75
2022/07/22 03:46:53;;;;;;;4.20;2.55;;;16.30;99.90;;;;;;5093242;28;20027;-76
2022/07/22 03:49:19;;;;;;;3.72;2.55;;;16.30;99.90;;;;;;5091349;28;20077;-76
2022/07/22 03:51:45;;;;;;;9.75;2.90;;;16.20;99.90;;;;;;5091854;28;20032;-75
2022/07/22 03:54:10;;;;;;;6.35;2.60;;;16.30;99.90;;;;;;5091865;28;20027;-75
2022/07/22 03:56:36;;;;;;;4.00;2.58;;;16.30;99.90;;;;;;5092064;28;20052;-75
2022/07/22 03:59:01;;;;;;;7.75;2.70;;;16.30;99.90;;;;;;5092581;28;20024;-76
2022/07/22 04:01:27;;;;;;;5.45;2.85;;;16.30;99.90;;;;;;5092423;28;20447;-75
2022/07/22 04:03:53;;;;;;;3.30;2.28;;;16.30;99.90;;;;;;5092633;28;20048;-74
2022/07/22 04:06:18;;;;;;;8.00;2.92;;;16.30;99.90;;;;;;5092849;28;20031;-74
2022/07/22 04:08:44;;;;;;;5.47;2.28;;;16.40;99.90;;;;;;5092782;28;20059;-75
2022/07/22 04:11:09;;;;;;;13.65;2.80;;;16.40;99.90;;;;;;5091784;28;20056;-75
2022/07/22 04:13:35;;;;;;;2.97;2.50;;;16.40;99.90;;;;;;5074426;28;20471;-75
2022/07/22 04:16:00;;;;;;;4.95;2.92;;;16.40;99.90;;;;;;5091759;28;20024;-75
2022/07/22 04:18:26;;;;;;;3.95;2.75;;;16.40;99.90;;;;;;5092135;28;20065;-75
2022/07/22 04:20:51;;;;;;;4.72;2.38;;;16.50;99.90;;;;;;5091748;28;20059;-75
2022/07/22 04:23:17;;;;;;;3.53;2.50;;;16.40;99.90;;;;;;5093276;28;20056;-75
2022/07/22 04:25:43;;;;;;;4.88;2.72;;;16.50;99.90;;;;;;5091852;28;20036;-75
2022/07/22 04:28:08;;;;;;;4.45;2.45;;;16.50;99.90;;;;;;5091745;28;20023;-74
2022/07/22 04:30:34;;;;;;;3.20;2.33;;;16.60;99.90;;;;;;5092088;28;20012;-76
2022/07/22 04:32:59;;;;;;;4.72;2.90;;;16.60;99.90;;;;;;5080803;28;20488;-76
2022/07/22 04:35:25;;;;;;;3.63;2.78;;;16.60;99.90;;;;;;5090389;28;20026;-75
2022/07/22 04:37:51;;;;;;;2.85;2.00;;;16.60;99.90;;;;;;5085225;28;20016;-76
2022/07/22 04:40:16;;;;;;;3.58;2.70;;;16.60;99.90;;;;;;5077393;28;20028;-75
2022/07/22 04:42:42;;;;;;;5.35;2.25;;;16.70;99.90;;;;;;5071167;28;20032;-74
2022/07/22 04:45:08;;;;;;;4.90;2.50;;;16.60;99.90;;;;;;5069898;28;20029;-75
2022/07/22 04:47:34;;;;;;;6.43;2.42;;;16.70;99.90;;;;;;5070312;28;20107;-75
2022/07/22 04:49:59;;;;;;;6.47;2.90;;;16.70;99.90;;;;;;5070660;28;20145;-74
2022/07/22 04:52:25;;;;;;;7.57;2.20;;;16.70;99.90;;;;;;5069608;28;20028;-75
2022/07/22 04:54:50;;;;;;;11.35;3.78;;;16.80;99.90;;;;;;5070537;28;20495;-74
2022/07/22 04:57:16;;;;;;;16.08;3.45;;;16.80;99.90;;;;;;5070438;28;20028;-74
2022/07/22 04:59:42;;;;;;;10.57;3.65;;;16.90;99.90;;;;;;5070588;28;20127;-75
2022/07/22 05:02:08;;;;;;;3.80;2.50;;;16.90;99.90;;;;;;5070541;28;20444;-75
2022/07/22 05:04:34;;;;;;;5.95;2.50;;;16.90;99.90;;;;;;5070686;28;20468;-75
2022/07/22 05:06:59;;;;;;;4.00;2.58;;;17.00;99.90;;;;;;5070369;28;20483;-76
2022/07/22 05:09:25;;;;;;;7.93;2.70;;;17.00;99.90;;;;;;5071971;28;20495;-74
2022/07/22 05:11:51;;;;;;;8.20;3.25;;;17.10;99.90;;;;;;5071824;28;20044;-75
2022/07/22 05:14:16;;;;;;;8.02;2.55;;;17.10;99.90;;;;;;5072112;28;20059;-74
2022/07/22 05:16:42;;;;;;;8.82;3.50;;;17.20;99.90;;;;;;5077359;28;20476;-74
2022/07/22 05:19:07;;;;;;;9.38;3.45;;;17.30;99.90;;;;;;5075007;28;20089;-74
2022/07/22 05:21:33;;;;;;;6.07;2.88;;;17.40;99.90;;;;;;5072394;28;20440;-75
2022/07/22 05:23:59;;;;;;;4.13;2.63;;;17.50;99.90;;;;;;5073885;28;20068;-74
2022/07/22 05:26:28;;;;;;;7.35;3.05;;;17.40;99.90;;;;;;5073830;28;20031;-74
2022/07/22 05:28:54;;;;;;;8.98;2.60;;;17.60;99.90;;;;;;5079687;28;20027;-73
2022/07/22 05:31:19;;;;;;;6.28;2.72;;;17.60;99.90;;;;;;5078048;28;20112;-75
2022/07/22 05:33:45;;;;;;;4.60;2.42;;;17.60;99.90;;;;;;5075521;28;20096;-76
2022/07/22 05:36:11;;;;;;;4.43;2.38;;;17.50;99.90;;;;;;5075472;28;20033;-74
2022/07/22 05:38:36;;;;;;;5.38;2.17;;;17.60;99.90;;;;;;5070885;28;20653;-74
2022/07/22 05:41:02;;;;;;;9.63;2.50;;;17.60;99.90;;;;;;5070114;28;20123;-75
2022/07/22 05:43:28;;;;;;;10.52;3.47;;;17.60;99.90;;;;;;5072561;28;20024;-74
2022/07/22 05:45:54;;;;;;;4.65;2.42;;;17.60;99.90;;;;;;5070552;28;20032;-74
2022/07/22 05:48:19;;;;;;;6.47;2.42;;;17.60;99.90;;;;;;5071628;28;20465;-74
2022/07/22 05:50:45;;;;;;;7.50;2.28;;;17.70;99.90;;;;;;5068334;28;20020;-74
2022/07/22 05:53:11;;;;;;;6.72;2.42;;;17.80;99.90;;;;;;5073916;28;20028;-71
2022/07/22 05:55:36;;;;;;;7.20;2.20;;;17.80;99.90;;;;;;5078018;28;20028;-74
2022/07/22 05:58:02;;;;;;;4.07;2.20;;;17.80;99.90;;;;;;5076387;28;20024;-70
2022/07/22 06:00:29;;;;;;;5.15;2.15;;;18.00;99.90;;;;;;5079387;28;20393;-73
2022/07/22 06:02:55;;;;;;;3.47;1.95;;;18.00;99.90;;;;;;5069399;28;20025;-74
2022/07/22 06:05:21;;;;;;;2.97;2.13;;;18.10;99.90;;;;;;5071989;28;20455;-75
2022/07/22 06:07:46;;;;;;;4.72;1.80;;;18.20;99.90;;;;;;5071788;28;20483;-74
2022/07/22 06:10:12;;;;;;;3.40;1.77;;;18.20;99.90;;;;;;5069161;28;20098;-74
2022/07/22 06:12:38;;;;;;;6.47;2.10;;;18.40;99.90;;;;;;5071194;28;20372;-74
2022/07/22 06:15:04;;;;;;;10.43;2.28;;;18.40;99.90;;;;;;5071189;28;20812;-79
2022/07/22 06:17:30;;;;;;;6.57;2.15;;;18.50;99.90;;;;;;5072265;28;20029;-75
2022/07/22 06:19:55;;;;;;;4.63;1.85;;;18.50;99.90;;;;;;5072542;28;20032;-75
2022/07/22 06:22:21;;;;;;;3.85;1.45;;;18.60;99.90;;;;;;5073294;28;20024;-74
2022/07/22 06:24:47;;;;;;;8.20;2.10;;;18.70;99.90;;;;;;5073472;28;20013;-77
2022/07/22 06:27:12;;;;;;;3.15;1.80;;;18.80;99.90;;;;;;5073204;28;20071;-76
2022/07/22 06:29:38;;;;;;;4.28;1.50;;;18.90;99.90;;;;;;5073065;28;20029;-77
2022/07/22 06:32:04;;;;;;;9.93;2.83;;;19.00;99.90;;;;;;5071257;28;20035;-74
2022/07/22 06:34:30;;;;;;;4.35;1.85;;;19.10;99.90;;;;;;5073683;28;20489;-79
2022/07/22 06:36:55;;;;;;;11.43;1.85;;;19.20;99.90;;;;;;5076698;28;20107;-77
2022/07/22 06:39:21;;;;;;;5.05;1.65;;;19.10;99.90;;;;;;5074415;28;20033;-76
2022/07/22 06:41:47;;;;;;;5.13;1.75;;;19.10;99.90;;;;;;5056184;28;20032;-76
2022/07/22 06:44:12;;;;;;;6.28;2.40;;;19.10;99.90;;;;;;5073439;28;20082;-72
2022/07/22 06:46:38;;;;;;;4.72;1.88;;;19.10;99.90;;;;;;5072003;28;20443;-71
2022/07/22 06:49:04;;;;;;;6.63;2.08;;;19.20;99.90;;;;;;5078543;28;20020;-78
2022/07/22 06:51:29;;;;;;;5.05;1.83;;;19.20;99.90;;;;;;5070448;28;21084;-77
2022/07/22 06:53:55;;;;;;;6.03;1.75;;;19.20;99.90;;;;;;5075700;28;20027;-77
2022/07/22 06:56:21;;;;;;;2.95;1.52;;;19.20;99.90;;;;;;5074369;28;20028;-76
2022/07/22 06:58:46;;;;;;;4.43;1.58;;;19.20;99.90;;;;;;5071556;28;20095;-72
2022/07/22 07:01:12;;;;;;;3.80;1.40;;;19.30;99.90;;;;;;5071890;28;20064;-78
2022/07/22 07:03:37;;;;;;;2.90;1.50;;;19.30;99.90;;;;;;5071874;28;20032;-76
2022/07/22 07:06:07;;;;;;;4.25;2.20;;;19.60;99.90;;;;;;5071181;28;20108;-76
2022/07/22 07:08:32;;;;;;;6.43;1.73;;;19.70;99.90;;;;;;5072952;28;20051;-75
2022/07/22 07:10:58;;;;;;;7.68;3.13;;;19.70;99.90;;;;;;5071600;28;20488;-78
2022/07/22 07:13:23;;;;;;;4.40;1.67;;;19.60;99.90;;;;;;5073739;28;20028;-76
2022/07/22 07:15:49;;;;;;;5.10;2.00;;;19.70;99.90;;;;;;5079159;28;20420;-78
2022/07/22 07:18:15;;;;;;;2.97;1.90;;;19.80;99.90;;;;;;5080949;28;20024;-77
2022/07/22 07:20:40;;;;;;;2.88;1.67;;;19.80;99.90;;;;;;5078671;28;20039;-77
2022/07/22 07:23:06;;;;;;;6.40;2.35;;;19.80;99.90;;;;;;5072447;28;20094;-76
2022/07/22 07:25:31;;;;;;;6.07;2.85;;;19.80;99.90;;;;;;5073685;28;20112;-76
2022/07/22 07:28:00;;;;;;;4.68;2.05;;;19.70;99.90;;;;;;5072623;28;20024;-76
2022/07/22 07:30:29;;;;;;;5.18;2.25;;;19.50;99.90;;;;;;5073999;28;20085;-76
2022/07/22 07:32:55;;;;;;;9.38;2.63;;;19.40;99.90;;;;;;5073774;28;20021;-76
2022/07/22 07:35:20;;;;;;;2.78;2.00;;;19.40;99.90;;;;;;5073998;28;20033;-76
2022/07/22 07:37:46;;;;;;;4.45;2.25;;;19.30;99.90;;;;;;5074191;28;20028;-76
2022/07/22 07:40:12;;;;;;;4.07;1.90;;;19.30;99.90;;;;;;5085288;28;20024;-74
2022/07/22 07:42:38;;;;;;;5.72;2.20;;;19.30;99.90;;;;;;5094235;28;20364;-74
2022/07/22 07:45:04;;;;;;;5.28;2.25;;;19.30;99.90;;;;;;5093714;28;20065;-76
2022/07/22 07:47:30;;;;;;;4.55;2.05;;;19.20;99.90;;;;;;5093398;28;20126;-75
2022/07/22 07:49:57;;;;;;;6.47;2.45;;;19.20;99.90;;;;;;5092993;28;20103;-76
2022/07/22 07:52:23;;;;;;;9.30;2.53;;;19.20;99.90;;;;;;5093830;28;20040;-75
2022/07/22 07:54:49;;;;;;;5.28;3.10;;;19.40;99.90;;;;;;5086658;28;20471;-75
2022/07/22 07:57:14;;;;;;;3.35;1.98;;;19.30;99.90;;;;;;5084445;28;20040;-75
2022/07/22 07:59:40;;;;;;;4.63;2.33;;;19.40;99.90;;;;;;5082420;28;20024;-77
2022/07/22 08:02:06;;;;;;;8.13;2.40;;;19.40;99.90;;;;;;5075471;28;20354;-73
2022/07/22 08:04:32;;;;;;;6.13;2.20;;;19.30;99.90;;;;;;5073363;28;20021;-74
2022/07/22 08:06:58;;;;;;;5.53;2.33;;;19.40;99.90;;;;;;5072706;28;20063;-74
2022/07/22 08:09:24;;;;;;;2.72;2.17;;;19.30;99.90;;;;;;5080527;28;20020;-74
2022/07/22 08:11:50;;;;;;;2.75;1.85;;;19.50;99.90;;;;;;5078525;28;20562;-73
2022/07/22 08:14:15;;;;;;;3.63;1.80;;;19.60;99.90;;;;;;5073614;28;20028;-75
2022/07/22 08:16:41;;;;;;;3.38;2.50;;;19.80;99.90;;;;;;5072701;28;20024;-74
2022/07/22 08:19:07;;;;;;;4.97;2.17;;;20.00;99.90;;;;;;5072281;28;20443;-74
2022/07/22 08:21:32;;;;;;;4.10;2.15;;;20.20;99.90;;;;;;5072350;28;20041;-73
2022/07/22 08:23:58;;;;;;;4.28;2.40;;;20.30;99.90;;;;;;5071063;28;20085;-74
2022/07/22 08:26:24;;;;;;;3.85;1.95;;;20.40;99.90;;;;;;5072678;28;20115;-74
2022/07/22 08:28:49;;;;;;;5.10;1.98;;;20.40;99.90;;;;;;5079388;28;20019;-74
2022/07/22 08:31:15;;;;;;;5.75;2.08;;;20.50;99.90;;;;;;5092878;28;20027;-74
2022/07/22 08:33:41;;;;;;;1.85;1.52;;;20.70;99.90;;;;;;5092546;28;20463;-73
2022/07/22 08:36:06;;;;;;;5.03;2.10;;;20.70;99.90;;;;;;5092306;28;20038;-73
2022/07/22 08:38:32;;;;;;;2.53;1.60;;;20.70;99.90;;;;;;5080418;28;20482;-70
2022/07/22 08:41:02;;;;;;;4.90;1.77;;;20.70;99.90;;;;;;5090280;28;20034;-71
2022/07/22 08:43:28;;;;;;;6.85;1.90;;;20.70;99.90;;;;;;5092558;28;20494;-71
2022/07/22 08:45:53;;;;;;;6.25;2.28;;;20.70;99.90;;;;;;5083062;28;20029;-71
2022/07/22 08:48:20;;;;;;;4.97;2.30;;;20.50;99.90;;;;;;5073695;28;20035;-72
2022/07/22 08:50:46;;;;;;;3.35;1.73;;;20.50;99.90;;;;;;5075815;28;20017;-75
2022/07/22 08:53:13;;;;;;;5.85;1.98;;;20.50;99.90;;;;;;5073256;28;20074;-77
2022/07/22 08:55:47;;;;;;;3.70;2.40;;;20.60;99.90;;;;;;5072715;28;20089;-72
2022/07/22 08:58:13;;;;;;;2.63;1.80;;;20.70;99.90;;;;;;5081962;28;20032;-75
2022/07/22 09:00:39;;;;;;;3.28;2.40;;;20.80;99.90;;;;;;5087643;28;20059;-75
2022/07/22 09:03:27;;;;;;;4.35;2.60;;;20.90;99.90;;;;;;5081104;28;20020;-75
2022/07/22 09:05:54;;;;;;;4.80;2.58;;;20.90;99.90;;;;;;5092583;28;20502;-76
2022/07/22 09:08:20;;;;;;;3.50;2.60;;;21.00;99.90;;;;;;5088722;28;20471;-76
2022/07/22 09:10:47;;;;;;;4.03;2.47;;;21.10;99.90;;;;;;5085762;28;20068;-76
2022/07/22 09:13:15;;;;;;;4.75;2.42;;;21.20;99.90;;;;;;5065703;28;20523;-74
2022/07/22 09:15:49;;;;;;;7.57;2.58;;;21.10;99.80;;;;;;5072755;28;20062;-75
2022/07/22 09:18:15;;;;;;;4.45;2.40;;;21.10;99.90;;;;;;5075714;28;20029;-76
2022/07/22 09:20:43;;;;;;;3.95;2.45;;;20.90;99.90;;;;;;5076205;28;20021;-75
2022/07/22 09:23:17;;;;;;;7.35;2.90;;;20.70;99.90;;;;;;5075525;28;20086;-75
2022/07/22 09:25:43;;;;;;;5.63;2.25;;;20.60;99.90;;;;;;5072513;28;20020;-74
2022/07/22 09:28:11;;;;;;;5.82;2.22;;;20.50;99.90;;;;;;5071428;28;20033;-75
2022/07/22 09:30:56;;;;;;;4.22;2.00;;;20.50;99.90;;;;;;5072739;28;20108;-77
2022/07/22 09:33:22;;;;;;;4.43;2.15;;;20.50;99.90;;;;;;5083543;28;20027;-76
2022/07/22 09:35:48;;;;;;;5.53;2.58;;;20.60;99.90;;;;;;5093179;28;20370;-73
2022/07/22 09:38:16;;;;;;;5.32;2.08;;;20.70;99.90;;;;;;5083438;28;20086;-76
2022/07/22 09:40:47;;;;;;;3.80;2.28;;;20.90;99.90;;;;;;5087415;28;20769;-75
2022/07/22 09:43:16;;;;;;;4.20;2.22;;;20.80;99.90;;;;;;5092492;28;20471;-76
2022/07/22 09:45:51;;;;;;;6.82;2.45;;;20.90;99.90;;;;;;5091796;28;20035;-76
2022/07/22 09:48:18;;;;;;;5.00;2.10;;;21.00;99.90;;;;;;5095701;28;20030;-76
2022/07/22 09:50:47;;;;;;;3.97;2.20;;;21.00;99.90;;;;;;5095804;28;20115;-75
2022/07/22 09:53:14;;;;;;;5.57;2.37;;;21.00;99.90;;;;;;5076962;28;20032;-76
2022/07/22 09:55:40;;;;;;;9.57;3.22;;;21.00;99.90;;;;;;5092252;28;20109;-75
2022/07/22 09:58:09;;;;;;;3.17;2.47;;;21.00;99.90;;;;;;5076514;28;20484;-77
2022/07/22 10:00:36;;;;;;;4.90;2.55;;;21.00;99.90;;;;;;5076777;28;20020;-76
2022/07/22 10:03:05;;;;;;;7.00;2.30;;;21.10;99.90;;;;;;5089622;28;20031;-76
2022/07/22 10:05:35;;;;;;;4.82;2.38;;;21.30;99.90;;;;;;5079585;28;20383;-74
2022/07/22 10:08:02;;;;;;;5.28;3.25;;;21.40;99.90;;;;;;5074485;28;20074;-74
2022/07/22 10:10:29;;;;;;;3.78;3.08;;;21.40;99.50;;;;;;5075391;28;20560;-73
2022/07/22 10:12:57;;;;;;;3.03;2.60;;;21.40;99.80;;;;;;5078950;28;20016;-72
2022/07/22 10:15:24;;;;;;;6.05;3.00;;;21.50;99.20;;;;;;5061005;28;20300;-71
2022/07/22 10:17:52;;;;;;;3.03;2.70;;;21.50;98.60;;;;;;5077567;28;20113;-72
2022/07/22 10:20:21;;;;;;;3.90;3.30;;;21.70;98.70;;;;;;5074195;28;20041;-71
2022/07/22 10:22:54;;;;;;;5.55;2.75;;;21.70;98.50;;;;;;5077407;28;20047;-70
2022/07/22 10:25:23;;;;;;;3.28;2.55;;;21.60;98.90;;;;;;5078531;28;20035;-74
2022/07/22 10:28:04;;;;;;;5.65;3.00;;;21.70;99.10;;;;;;5073919;28;20021;-74
2022/07/22 10:30:34;;;;;;;4.97;2.97;;;21.80;98.70;;;;;;5076893;28;20056;-75
2022/07/22 10:33:03;;;;;;;;;;;21.80;98.40;;;;;;5075359;28;20083;-74
2022/07/22 10:35:29;;;;;;;6.82;2.50;;;21.80;98.10;;;;;;5078135;28;19930;-74
2022/07/22 10:37:56;;;;;;;2.97;1.98;;;22.00;97.70;;;;;;5083552;28;20024;-73
2022/07/22 10:40:31;;;;;;;2.42;1.70;;;22.10;97.40;;;;;;5075491;28;20048;-68
2022/07/22 10:42:57;;;;;;;2.45;1.65;;;22.30;97.30;;;;;;5081736;28;20460;-74
2022/07/22 10:45:34;;;;;;;3.67;2.85;;;22.20;97.00;;;;;;5073849;28;20115;-74
2022/07/22 10:48:03;;;;;;;5.88;2.25;;;22.30;97.20;;;;;;5076733;28;20029;-74
2022/07/22 10:50:37;;;;;;;5.40;2.78;;;22.30;97.40;;;;;;5076393;28;20028;-74
2022/07/22 10:53:06;;;;;;;4.03;1.95;;;22.50;97.40;;;;;;5079701;28;20023;-74
2022/07/22 10:55:32;;;;;;;4.45;2.28;;;22.60;96.50;;;;;;5081995;28;20067;-74
2022/07/22 10:57:57;;;;;;;5.47;2.35;;;22.50;96.20;;;;;;5072921;28;20112;-74
2022/07/22 11:00:23;;;;;;;6.68;2.55;;;22.50;96.20;;;;;;5076592;28;20052;-74
2022/07/22 11:02:49;;;;;;;3.97;2.53;;;22.50;96.40;;;;;;5073333;28;20036;-74
2022/07/22 11:05:25;;;;;;;2.70;1.65;;;22.50;96.40;;;;;;5073750;28;20020;-75
2022/07/22 11:07:51;;;;;;;2.55;1.90;;;22.70;96.70;;;;;;5073641;28;20046;-74
2022/07/22 11:10:19;;;;;;;2.67;1.70;;;22.80;95.40;;;;;;5073645;28;20145;-74
2022/07/22 11:12:49;;;;;;;4.43;2.10;;;22.80;96.20;;;;;;5072683;28;20364;-75
2022/07/22 11:15:15;;;;;;;5.47;1.63;;;22.90;95.90;;;;;;5074321;28;20059;-76
2022/07/22 11:17:41;;;;;;;3.00;1.90;;;22.90;95.00;;;;;;5075936;28;20036;-75
2022/07/22 11:20:10;;;;;;;9.48;1.70;;;22.80;94.80;;;;;;5077897;28;20025;-75
2022/07/22 11:22:36;;;;;;;3.90;1.40;;;22.60;94.80;;;;;;5076000;28;20029;-75
2022/07/22 11:25:07;;;;;;;2.78;1.58;;;22.50;95.20;;;;;;5075172;28;20048;-76
2022/07/22 11:27:33;;;;;;;4.72;1.60;;;22.60;95.30;;;;;;5067992;28;20032;-74
2022/07/22 11:29:59;;;;;;;4.13;1.63;;;22.80;95.20;;;;;;5080595;28;20016;-74
2022/07/22 11:32:27;;;;;;;4.47;1.63;;;23.00;94.30;;;;;;5072563;28;20184;-75
2022/07/22 11:34:53;;;;;;;5.20;2.10;;;23.30;94.00;;;;;;5072507;28;20423;-73
2022/07/22 11:37:23;;;;;;;5.57;1.98;;;23.40;93.10;;;;;;5072607;28;20036;-74
2022/07/22 11:39:49;;;;;;;3.45;2.20;;;23.10;93.20;;;;;;5063256;28;20016;-74
2022/07/22 11:42:15;;;;;;;5.75;2.80;;;23.00;94.30;;;;;;5077040;28;20040;-74
2022/07/22 11:44:40;;;;;;;2.88;2.17;;;22.90;94.10;;;;;;5072356;28;20456;-74
2022/07/22 11:47:09;;;;;;;5.13;2.35;;;22.60;94.90;;;;;;5077452;28;20040;-74
2022/07/22 11:49:37;;;;;;;4.38;2.30;;;22.30;94.70;;;;;;5073003;28;20021;-74
2022/07/22 11:52:11;;;;;;;4.65;1.90;;;22.00;95.70;;;;;;5077968;28;20440;-74
2022/07/22 11:54:38;;;;;;;5.45;2.58;;;21.90;95.60;;;;;;5073561;28;20031;-76
2022/07/22 11:57:03;;;;;;;4.93;2.58;;;21.90;95.70;;;;;;5072431;28;20024;-75
2022/07/22 11:59:33;;;;;;;7.22;3.00;;;22.20;95.80;;;;;;5072790;28;20040;-74
2022/07/22 12:01:59;;;;;;;4.07;2.67;;;22.20;95.40;;;;;;5072560;28;20028;-75
2022/07/22 12:04:26;;;;;;;5.10;2.90;;;22.50;95.40;;;;;;5073046;28;20036;-75
2022/07/22 12:06:56;;;;;;;4.40;2.65;;;22.50;94.50;;;;;;5073372;28;20040;-75
2022/07/22 12:09:28;;;;;;;5.47;2.42;;;22.30;94.50;;;;;;5073753;28;20047;-75
2022/07/22 12:11:57;;;;;;;3.92;2.30;;;22.30;95.20;;;;;;5085437;28;20115;-74
2022/07/22 12:14:29;;;;;;;6.65;2.40;;;22.40;95.20;;;;;;5073019;28;20033;-74
2022/07/22 12:17:07;;;;;;;6.40;2.30;;;22.50;95.30;;;;;;5071985;28;20035;-74
2022/07/22 12:19:34;;;;;;;6.70;2.10;;;22.60;95.10;;;;;;5072756;28;20025;-74
2022/07/22 12:22:04;;;;;;;4.25;2.25;;;22.80;94.70;;;;;;5071997;28;20040;-74
2022/07/22 12:24:33;;;;;;;6.18;2.08;;;22.80;94.40;;;;;;5073398;28;20464;-75
2022/07/22 12:27:14;;;;;;;5.22;2.65;;;22.90;94.10;;;;;;5074592;28;20499;-74
2022/07/22 12:29:39;;;;;;;1.83;1.58;;;23.10;93.80;;;;;;5074327;28;20043;-74
2022/07/22 12:32:26;;;;;;;2.35;2.15;;;23.20;93.70;;;;;;5072858;28;20033;-74
2022/07/22 12:34:55;;;;;;;3.35;2.55;;;23.30;94.20;;;;;;5071689;28;20021;-73
2022/07/22 12:37:23;;;;;;;6.05;2.78;;;23.30;93.90;;;;;;5074200;28;20021;-74
2022/07/22 12:40:20;;;;;;;4.45;3.15;;;22.90;93.90;;;;;;5071636;28;20528;-73
2022/07/22 12:43:02;;;;;;;3.75;2.83;;;22.40;94.60;;;;;;5063648;28;20045;-74